createdAt,value
2023-01-02T00:00:30.742Z,100708.00
2023-01-02T00:03:03.979Z,100705.09
2023-01-02T00:05:37.032Z,100703.59
2023-01-02T00:08:09.769Z,100718.31
2023-01-02T00:10:43.248Z,100716.56
2023-01-02T00:13:15.882Z,100712.16
2023-01-02T00:15:48.519Z,100704.81
2023-01-02T00:18:21.241Z,100707.06
2023-01-02T00:20:53.878Z,100703.53
2023-01-02T00:23:26.450Z,100706.84
2023-01-02T00:25:59.410Z,100698.91
2023-01-02T00:28:32.065Z,100696.47
2023-01-02T00:31:11.756Z,100692.56
2023-01-02T00:33:44.398Z,100686.19
2023-01-02T00:36:16.938Z,100700.19
2023-01-02T00:38:49.492Z,100680.22
2023-01-02T00:41:22.845Z,100677.56
2023-01-02T00:43:55.466Z,100681.75
2023-01-02T00:46:28.101Z,100681.66
2023-01-02T00:49:00.731Z,100686.97
2023-01-02T00:51:33.316Z,100681.72
2023-01-02T00:54:05.992Z,100686.25
2023-01-02T00:56:38.555Z,100671.75
2023-01-02T00:59:11.366Z,100670.16
2023-01-02T01:01:44.057Z,100657.31
2023-01-02T01:04:17.017Z,100662.19
2023-01-02T01:06:49.572Z,100665.25
2023-01-02T01:09:22.283Z,100655.53
2023-01-02T01:11:55.180Z,100664.16
2023-01-02T01:14:27.703Z,100661.19
2023-01-02T01:17:00.910Z,100662.41
2023-01-02T01:19:35.686Z,100658.00
2023-01-02T01:22:08.288Z,100663.06
2023-01-02T01:24:40.906Z,100656.81
2023-01-02T01:27:13.523Z,100661.22
2023-01-02T01:29:46.119Z,100659.00
2023-01-02T01:32:20.258Z,100658.66
2023-01-02T01:34:52.840Z,100658.75
2023-01-02T01:37:25.580Z,100666.56
2023-01-02T01:39:58.221Z,100670.81
2023-01-02T01:42:34.751Z,100665.84
2023-01-02T01:45:17.083Z,100665.34
2023-01-02T01:47:56.893Z,100667.56
2023-01-02T01:50:35.420Z,100670.66
2023-01-02T01:53:16.240Z,100677.53
2023-01-02T01:55:55.861Z,100677.50
2023-01-02T01:58:46.809Z,100677.50
2023-01-02T02:01:19.612Z,100680.66
2023-01-02T02:03:52.571Z,100683.88
2023-01-02T02:06:25.425Z,100678.53
2023-01-02T02:09:12.521Z,100688.72
2023-01-02T02:11:46.824Z,100677.28
2023-01-02T02:14:19.499Z,100676.25
2023-01-02T02:17:12.525Z,100687.72
2023-01-02T02:20:14.530Z,100688.00
2023-01-02T02:23:26.783Z,100681.00
2023-01-02T02:26:46.263Z,100685.97
2023-01-02T02:30:03.006Z,100700.81
2023-01-02T02:33:22.058Z,100683.38
2023-01-02T02:36:32.914Z,100676.91
2023-01-02T02:40:04.033Z,100685.41
2023-01-02T02:43:02.347Z,100684.25
2023-01-02T02:46:15.640Z,100689.75
2023-01-02T02:49:04.111Z,100683.13
2023-01-02T02:51:52.434Z,100686.06
2023-01-02T02:54:44.173Z,100681.56
2023-01-02T02:57:18.436Z,100686.03
2023-01-02T02:59:51.935Z,100682.41
2023-01-02T03:02:24.587Z,100678.16
2023-01-02T03:05:05.533Z,100689.91
2023-01-02T03:07:52.129Z,100682.66
2023-01-02T03:10:43.827Z,100684.50
2023-01-02T03:14:01.548Z,100681.94
2023-01-02T03:16:42.217Z,100670.66
2023-01-02T03:19:23.108Z,100673.22
2023-01-02T03:22:29.181Z,100666.88
2023-01-02T03:25:05.041Z,100670.38
2023-01-02T03:27:43.778Z,100673.22
2023-01-02T03:30:22.403Z,100671.13
2023-01-02T03:33:08.921Z,100665.81
2023-01-02T03:35:49.941Z,100678.81
2023-01-02T03:38:38.772Z,100684.75
2023-01-02T03:41:19.503Z,100680.19
2023-01-02T03:43:57.524Z,100686.41
2023-01-02T03:46:44.987Z,100693.81
2023-01-02T03:49:27.269Z,100683.13
2023-01-02T03:52:00.525Z,100692.66
2023-01-02T03:54:33.241Z,100691.66
2023-01-02T03:57:08.793Z,100701.44
2023-01-02T04:00:00.424Z,100703.47
2023-01-02T04:02:54.839Z,100700.69
2023-01-02T04:06:16.118Z,100696.22
2023-01-02T04:09:00.478Z,100702.28
2023-01-02T04:11:37.026Z,100706.94
2023-01-02T04:14:19.512Z,100702.09
2023-01-02T04:16:54.676Z,100700.50
2023-01-02T04:19:38.638Z,100711.75
2023-01-02T04:22:19.280Z,100715.81
2023-01-02T04:25:06.136Z,100714.00
2023-01-02T04:27:49.087Z,100718.91
2023-01-02T04:30:21.696Z,100720.47
2023-01-02T04:32:57.836Z,100723.09
2023-01-02T04:35:30.673Z,100724.06
2023-01-02T04:38:11.574Z,100719.63
2023-01-02T04:40:44.704Z,100729.94
2023-01-02T04:43:21.166Z,100727.38
2023-01-02T04:45:53.819Z,100723.19
2023-01-02T04:48:26.524Z,100740.56
2023-01-02T04:50:59.146Z,100737.38
2023-01-02T04:53:31.870Z,100728.53
2023-01-02T04:56:04.877Z,100737.97
2023-01-02T04:58:37.512Z,100747.84
2023-01-02T05:01:12.370Z,100757.25
2023-01-02T05:03:48.827Z,100748.63
2023-01-02T05:06:21.495Z,100754.84
2023-01-02T05:08:54.135Z,100755.50
2023-01-02T05:11:26.712Z,100751.78
2023-01-02T05:14:05.417Z,100753.41
2023-01-02T05:16:39.824Z,100744.41
2023-01-02T05:19:13.135Z,100757.72
2023-01-02T05:22:04.202Z,100750.06
2023-01-02T05:24:36.777Z,100762.13
2023-01-02T05:27:09.361Z,100763.97
2023-01-02T05:29:41.968Z,100761.19
2023-01-02T05:32:14.540Z,100766.00
2023-01-02T05:34:47.153Z,100767.09
2023-01-02T05:37:19.674Z,100772.75
2023-01-02T05:39:52.247Z,100780.88
2023-01-02T05:42:24.827Z,100785.31
2023-01-02T05:44:57.375Z,100786.63
2023-01-02T05:47:30.126Z,100801.06
2023-01-02T05:50:02.698Z,100800.72
2023-01-02T05:52:37.644Z,100790.00
2023-01-02T05:55:14.356Z,100803.91
2023-01-02T05:57:46.876Z,100807.63
2023-01-02T06:00:19.500Z,100805.22
2023-01-02T06:02:52.124Z,100805.84
2023-01-02T06:05:24.821Z,100814.44
2023-01-02T06:07:57.374Z,100818.34
2023-01-02T06:10:29.984Z,100819.50
2023-01-02T06:13:02.679Z,100829.81
2023-01-02T06:15:35.454Z,100827.63
2023-01-02T06:18:08.070Z,100838.41
2023-01-02T06:20:46.019Z,100854.38
2023-01-02T06:23:19.211Z,100857.78
2023-01-02T06:25:51.882Z,100869.88
2023-01-02T06:28:36.919Z,100873.72
2023-01-02T06:31:17.621Z,100897.03
2023-01-02T06:33:55.972Z,100907.72
2023-01-02T06:36:34.294Z,100918.41
2023-01-02T06:39:07.980Z,100918.72
2023-01-02T06:41:41.093Z,100922.16
2023-01-02T06:44:14.225Z,100934.34
2023-01-02T06:46:46.787Z,100936.28
2023-01-02T06:49:19.424Z,100947.16
2023-01-02T06:51:55.192Z,100955.75
2023-01-02T06:54:38.458Z,100963.00
2023-01-02T06:57:12.181Z,100958.06
2023-01-02T06:59:44.713Z,100971.53
2023-01-02T07:02:23.352Z,100980.72
2023-01-02T07:04:56.727Z,100992.91
2023-01-02T07:07:29.258Z,100994.00
2023-01-02T07:10:02.140Z,101009.28
2023-01-02T07:12:37.289Z,101027.69
2023-01-02T07:15:10.410Z,101023.16
2023-01-02T07:17:43.033Z,101033.78
2023-01-02T07:20:19.240Z,101039.13
2023-01-02T07:22:55.947Z,101047.91
2023-01-02T07:25:29.165Z,101048.03
2023-01-02T07:28:01.736Z,101056.47
2023-01-02T07:30:37.012Z,101071.88
2023-01-02T07:33:16.291Z,101077.00
2023-01-02T07:35:51.945Z,101080.41
2023-01-02T07:38:24.599Z,101082.91
2023-01-02T07:40:57.192Z,101077.66
2023-01-02T07:43:30.211Z,101087.34
2023-01-02T07:46:04.640Z,101100.91
2023-01-02T07:48:37.522Z,101099.88
2023-01-02T07:51:17.357Z,101115.03
2023-01-02T07:53:53.750Z,101123.84
2023-01-02T07:56:26.674Z,101122.88
2023-01-02T07:58:59.276Z,101126.28
2023-01-02T08:01:34.856Z,101139.84
2023-01-02T08:04:08.077Z,101159.03
2023-01-02T08:06:41.519Z,101147.63
2023-01-02T08:09:14.129Z,101159.34
2023-01-02T08:11:46.772Z,101159.56
2023-01-02T08:14:23.392Z,101175.22
2023-01-02T08:16:56.705Z,101186.88
2023-01-02T08:19:29.225Z,101191.28
2023-01-02T08:22:01.985Z,101191.25
2023-01-02T08:24:34.645Z,101182.44
2023-01-02T08:27:11.080Z,101196.31
2023-01-02T08:29:43.617Z,101198.16
2023-01-02T08:32:16.192Z,101199.25
2023-01-02T08:34:48.908Z,101207.28
2023-01-02T08:37:21.669Z,101202.09
2023-01-02T08:39:56.711Z,101203.63
2023-01-02T08:42:29.655Z,101214.13
2023-01-02T08:45:02.517Z,101222.22
2023-01-02T08:47:35.319Z,101231.16
2023-01-02T08:50:08.470Z,101226.78
2023-01-02T08:52:40.971Z,101239.72
2023-01-02T08:55:13.644Z,101244.34
2023-01-02T08:57:49.489Z,101247.72
2023-01-02T09:00:22.352Z,101246.03
2023-01-02T09:02:55.016Z,101255.56
2023-01-02T09:05:30.813Z,101253.00
2023-01-02T09:08:03.584Z,101254.81
2023-01-02T09:10:36.210Z,101260.97
2023-01-02T09:13:08.805Z,101258.31
2023-01-02T09:15:45.486Z,101271.59
2023-01-02T09:18:18.070Z,101275.97
2023-01-02T09:20:50.702Z,101283.69
2023-01-02T09:23:23.266Z,101295.19
2023-01-02T09:26:06.309Z,101303.13
2023-01-02T09:28:39.041Z,101304.69
2023-01-02T09:31:15.998Z,101307.53
2023-01-02T09:33:49.925Z,101304.94
2023-01-02T09:36:23.038Z,101312.91
2023-01-02T09:38:59.275Z,101316.25
2023-01-02T09:41:38.275Z,101310.09
2023-01-02T09:44:36.148Z,101330.34
2023-01-02T09:47:11.331Z,101323.38
2023-01-02T09:49:51.944Z,101324.28
2023-01-02T09:52:44.680Z,101328.34
2023-01-02T09:55:33.093Z,101341.66
2023-01-02T09:58:29.731Z,101329.38
2023-01-02T10:01:05.514Z,101334.84
2023-01-02T10:04:23.171Z,101342.59
2023-01-02T10:07:07.191Z,101346.22
2023-01-02T10:10:07.261Z,101354.00
2023-01-02T10:13:06.935Z,101357.34
2023-01-02T10:15:46.084Z,101355.44
2023-01-02T10:18:30.147Z,101357.41
2023-01-02T10:21:16.919Z,101357.34
2023-01-02T10:24:22.964Z,101351.75
2023-01-02T10:26:56.644Z,101343.97
2023-01-02T10:29:39.377Z,101354.47
2023-01-02T10:32:23.014Z,101353.56
2023-01-02T10:35:08.142Z,101371.38
2023-01-02T10:37:40.765Z,101367.88
2023-01-02T10:40:13.909Z,101369.69
2023-01-02T10:42:59.307Z,101372.81
2023-01-02T10:45:33.663Z,101363.31
2023-01-02T10:48:06.742Z,101367.53
2023-01-02T10:50:51.317Z,101376.63
2023-01-02T10:53:37.260Z,101370.19
2023-01-02T10:56:20.734Z,101368.50
2023-01-02T10:58:53.671Z,101378.75
2023-01-02T11:01:26.904Z,101382.22
2023-01-02T11:04:27.245Z,101385.28
2023-01-02T11:07:03.979Z,101391.28
2023-01-02T11:09:36.477Z,101388.91
2023-01-02T11:12:14.189Z,101395.66
2023-01-02T11:14:46.832Z,101385.03
2023-01-02T11:17:23.987Z,101387.38
2023-01-02T11:19:57.245Z,101397.03
2023-01-02T11:22:37.935Z,101392.16
2023-01-02T11:25:25.743Z,101395.50
2023-01-02T11:28:00.929Z,101403.47
2023-01-02T11:30:42.449Z,101399.00
2023-01-02T11:33:37.967Z,101414.94
2023-01-02T11:36:10.601Z,101409.63
2023-01-02T11:38:50.748Z,101406.91
2023-01-02T11:42:10.227Z,101413.81
2023-01-02T11:44:54.085Z,101398.88
2023-01-02T11:47:44.462Z,101408.84
2023-01-02T11:50:30.698Z,101406.22
2023-01-02T11:53:12.353Z,101407.28
2023-01-02T11:55:58.447Z,101416.84
2023-01-02T11:58:30.919Z,101423.78
2023-01-02T12:01:15.665Z,101427.94
2023-01-02T12:03:49.096Z,101426.25
2023-01-02T12:06:32.379Z,101427.28
2023-01-02T12:09:52.017Z,101421.16
2023-01-02T12:13:04.220Z,101427.53
2023-01-02T12:16:02.575Z,101430.91
2023-01-02T12:19:00.825Z,101430.22
2023-01-02T12:22:02.995Z,101429.94
2023-01-02T12:24:53.320Z,101427.75
2023-01-02T12:27:37.728Z,101437.88
2023-01-02T12:30:21.905Z,101433.41
2023-01-02T12:33:16.460Z,101436.28
2023-01-02T12:36:28.627Z,101442.31
2023-01-02T12:39:16.391Z,101446.56
2023-01-02T12:42:17.607Z,101449.47
2023-01-02T12:44:58.189Z,101457.47
2023-01-02T12:47:58.725Z,101461.72
2023-01-02T12:50:48.623Z,101470.75
2023-01-02T12:54:19.257Z,101465.50
2023-01-02T12:57:20.086Z,101477.69
2023-01-02T13:00:29.113Z,101468.97
2023-01-02T13:03:49.813Z,101471.47
2023-01-02T13:06:45.968Z,101475.88
2023-01-02T13:09:41.144Z,101481.25
2023-01-02T13:12:19.528Z,101466.19
2023-01-02T13:15:03.635Z,101462.06
2023-01-02T13:17:45.133Z,101471.63
2023-01-02T13:20:48.757Z,101477.72
2023-01-02T13:23:37.216Z,101460.69
2023-01-02T13:26:24.677Z,101461.78
2023-01-02T13:29:20.381Z,101472.09
2023-01-02T13:31:55.985Z,101473.94
2023-01-02T13:34:32.115Z,101467.84
2023-01-02T13:37:15.626Z,101457.88
2023-01-02T13:39:53.570Z,101458.72
2023-01-02T13:42:51.702Z,101472.81
2023-01-02T13:45:41.851Z,101467.78
2023-01-02T13:48:33.565Z,101481.88
2023-01-02T13:51:31.746Z,101480.03
2023-01-02T13:54:35.421Z,101494.25
2023-01-02T13:57:26.267Z,101493.34
2023-01-02T14:00:03.472Z,101487.25
2023-01-02T14:02:36.223Z,101498.66
2023-01-02T14:06:03.671Z,101502.19
2023-01-02T14:08:40.111Z,101503.94
2023-01-02T14:11:27.397Z,101510.13
2023-01-02T14:14:00.684Z,101505.22
2023-01-02T14:17:02.148Z,101504.19
2023-01-02T14:19:35.185Z,101506.75
2023-01-02T14:22:18.605Z,101511.28
2023-01-02T14:24:53.411Z,101516.63
2023-01-02T14:27:37.704Z,101519.09
2023-01-02T14:30:14.794Z,101528.91
2023-01-02T14:32:52.765Z,101516.66
2023-01-02T14:35:33.122Z,101526.44
2023-01-02T14:38:30.308Z,101529.84
2023-01-02T14:41:21.454Z,101537.84
2023-01-02T14:43:54.079Z,101544.97
2023-01-02T14:46:27.742Z,101538.84
2023-01-02T14:49:25.892Z,101547.66
2023-01-02T14:52:07.142Z,101549.38
2023-01-02T14:54:53.161Z,101540.34
2023-01-02T14:57:32.960Z,101545.69
2023-01-02T15:00:18.406Z,101547.84
2023-01-02T15:02:59.793Z,101555.84
2023-01-02T15:05:47.863Z,101559.34
2023-01-02T15:08:32.882Z,101571.78
2023-01-02T15:11:42.537Z,101582.38
2023-01-02T15:14:23.588Z,101587.59
2023-01-02T15:17:00.596Z,101592.06
2023-01-02T15:19:34.280Z,101607.16
2023-01-02T15:22:13.774Z,101604.47
2023-01-02T15:24:52.826Z,101615.00
2023-01-02T15:27:28.705Z,101621.28
2023-01-02T15:30:21.885Z,101628.34
2023-01-02T15:32:55.522Z,101634.47
2023-01-02T15:35:34.503Z,101636.22
2023-01-02T15:38:22.350Z,101647.72
2023-01-02T15:40:57.248Z,101644.19
2023-01-02T15:43:52.781Z,101657.53
2023-01-02T15:46:25.682Z,101658.41
2023-01-02T15:49:00.307Z,101670.75
2023-01-02T15:51:40.467Z,101673.41
2023-01-02T15:54:16.523Z,101671.72
2023-01-02T15:56:49.387Z,101673.41
2023-01-02T15:59:37.077Z,101672.53
2023-01-02T16:02:44.927Z,101680.53
2023-01-02T16:05:19.453Z,101688.44
2023-01-02T16:07:56.279Z,101692.00
2023-01-02T16:10:30.637Z,101692.88
2023-01-02T16:13:27.917Z,101700.84
2023-01-02T16:16:16.294Z,101709.63
2023-01-02T16:18:59.562Z,101705.22
2023-01-02T16:21:32.675Z,101720.22
2023-01-02T16:24:05.375Z,101719.34
2023-01-02T16:26:42.084Z,101720.19
2023-01-02T16:29:19.652Z,101722.84
2023-01-02T16:32:01.846Z,101730.75
2023-01-02T16:34:36.749Z,101738.66
2023-01-02T16:37:34.959Z,101750.13
2023-01-02T16:41:01.882Z,101734.25
2023-01-02T16:43:38.247Z,101742.19
2023-01-02T16:46:16.161Z,101757.16
2023-01-02T16:48:48.800Z,101766.00
2023-01-02T16:51:21.318Z,101762.47
2023-01-02T16:53:53.813Z,101766.84
2023-01-02T16:56:26.385Z,101762.44
2023-01-02T16:59:01.438Z,101777.41
2023-01-02T17:01:34.276Z,101779.16
2023-01-02T17:04:06.867Z,101786.22
2023-01-02T17:06:39.629Z,101780.94
2023-01-02T17:09:12.162Z,101788.88
2023-01-02T17:12:00.230Z,101781.78
2023-01-02T17:14:33.887Z,101787.94
2023-01-02T17:17:06.541Z,101794.94
2023-01-02T17:19:39.083Z,101789.69
2023-01-02T17:22:11.609Z,101800.22
2023-01-02T17:24:44.213Z,101809.91
2023-01-02T17:27:16.715Z,101818.69
2023-01-02T17:29:49.350Z,101819.56
2023-01-02T17:32:21.961Z,101817.69
2023-01-02T17:34:54.587Z,101823.03
2023-01-02T17:37:27.130Z,101823.88
2023-01-02T17:39:59.693Z,101823.03
2023-01-02T17:42:32.634Z,101829.19
2023-01-02T17:45:06.537Z,101829.28
2023-01-02T17:47:59.909Z,101835.41
2023-01-02T17:50:32.361Z,101837.16
2023-01-02T17:53:05.051Z,101845.06
2023-01-02T17:55:37.572Z,101862.59
2023-01-02T17:58:10.074Z,101856.34
2023-01-02T18:00:46.023Z,101869.56
2023-01-02T18:03:19.274Z,101880.97
2023-01-02T18:05:51.793Z,101885.38
2023-01-02T18:08:27.728Z,101891.50
2023-01-02T18:11:00.333Z,101890.50
2023-01-02T18:13:42.570Z,101885.34
2023-01-02T18:16:22.455Z,101898.41
2023-01-02T18:18:55.607Z,101901.09
2023-01-02T18:21:34.085Z,101902.78
2023-01-02T18:24:30.581Z,101911.50
2023-01-02T18:27:27.479Z,101919.41
2023-01-02T18:30:21.655Z,101920.19
2023-01-02T18:33:12.253Z,101937.66
2023-01-02T18:35:57.098Z,101936.00
2023-01-02T18:38:36.588Z,101945.69
2023-01-02T18:41:25.740Z,101945.66
2023-01-02T18:44:14.401Z,101947.50
2023-01-02T18:47:01.751Z,101945.63
2023-01-02T18:49:43.204Z,101946.41
2023-01-02T18:52:16.867Z,101958.66
2023-01-02T18:54:59.410Z,101963.09
2023-01-02T18:57:42.889Z,101963.94
2023-01-02T19:00:32.978Z,101969.28
2023-01-02T19:03:08.743Z,101974.44
2023-01-02T19:05:44.600Z,101979.78
2023-01-02T19:08:36.908Z,101987.69
2023-01-02T19:11:41.420Z,101994.81
2023-01-02T19:14:23.366Z,102005.31
2023-01-02T19:17:29.451Z,102009.78
2023-01-02T19:20:02.113Z,102017.63
2023-01-02T19:22:36.571Z,102018.34
2023-01-02T19:25:21.976Z,102027.03
2023-01-02T19:27:56.431Z,102020.28
2023-01-02T19:30:38.419Z,102024.56
2023-01-02T19:33:39.249Z,102025.34
2023-01-02T19:36:36.691Z,102021.88
2023-01-02T19:39:35.853Z,102038.44
2023-01-02T19:42:21.834Z,102044.56
2023-01-02T19:44:55.908Z,102040.94
2023-01-02T19:47:32.601Z,102053.09
2023-01-02T19:50:11.137Z,102061.91
2023-01-02T19:52:43.774Z,102053.84
2023-01-02T19:55:17.939Z,102064.22
2023-01-02T19:57:50.653Z,102062.25
2023-01-02T20:00:23.570Z,102066.66
2023-01-02T20:02:56.434Z,102066.59
2023-01-02T20:05:29.088Z,102068.38
2023-01-02T20:08:02.317Z,102075.41
2023-01-02T20:10:35.085Z,102076.09
2023-01-02T20:13:07.727Z,102073.38
2023-01-02T20:15:40.507Z,102077.63
2023-01-02T20:18:13.095Z,102079.25
2023-01-02T20:20:45.923Z,102080.38
2023-01-02T20:23:18.624Z,102074.16
2023-01-02T20:25:51.284Z,102080.16
2023-01-02T20:28:23.861Z,102084.50
2023-01-02T20:30:56.503Z,102094.00
2023-01-02T20:33:29.104Z,102095.84
2023-01-02T20:36:01.787Z,102095.69
2023-01-02T20:38:34.392Z,102100.13
2023-01-02T20:41:07.003Z,102098.16
2023-01-02T20:43:39.781Z,102099.06
2023-01-02T20:46:12.760Z,102110.50
2023-01-02T20:48:45.560Z,102106.13
2023-01-02T20:51:18.394Z,102101.50
2023-01-02T20:53:50.996Z,102099.69
2023-01-02T20:56:23.663Z,102105.13
2023-01-02T20:58:57.275Z,102116.38
2023-01-02T21:01:30.051Z,102113.88
2023-01-02T21:04:02.820Z,102121.88
2023-01-02T21:06:35.574Z,102126.34
2023-01-02T21:09:08.362Z,102128.19
2023-01-02T21:11:40.983Z,102129.97
2023-01-02T21:14:13.685Z,102128.31
2023-01-02T21:16:46.201Z,102137.44
2023-01-02T21:19:18.809Z,102141.84
2023-01-02T21:21:51.352Z,102146.38
2023-01-02T21:24:23.898Z,102151.81
2023-01-02T21:26:56.477Z,102150.16
2023-01-02T21:29:29.103Z,102154.66
2023-01-02T21:32:01.666Z,102160.84
2023-01-02T21:34:34.327Z,102159.91
2023-01-02T21:37:06.897Z,102168.84
2023-01-02T21:39:39.506Z,102173.25
2023-01-02T21:42:18.222Z,102174.06
2023-01-02T21:44:50.809Z,102165.34
2023-01-02T21:47:23.550Z,102164.69
2023-01-02T21:49:56.094Z,102170.03
2023-01-02T21:52:28.794Z,102167.31
2023-01-02T21:55:01.484Z,102166.56
2023-01-02T21:58:11.132Z,102159.44
2023-01-02T22:00:29.262Z,102172.47
2023-01-02T22:03:01.963Z,102164.53
2023-01-02T22:05:34.823Z,102171.31
2023-01-02T22:08:07.597Z,102172.13
2023-01-02T22:10:40.190Z,102174.53
2023-01-02T22:13:12.773Z,102186.66
2023-01-02T22:15:45.776Z,102191.91
2023-01-02T22:18:18.487Z,102192.72
2023-01-02T22:20:51.109Z,102195.19
2023-01-02T22:23:23.654Z,102199.63
2023-01-02T22:25:56.345Z,102204.63
2023-01-02T22:28:28.926Z,102208.13
2023-01-02T22:31:01.539Z,102209.88
2023-01-02T22:33:34.259Z,102218.50
2023-01-02T22:36:08.035Z,102221.78
2023-01-02T22:39:02.444Z,102233.47
2023-01-02T22:41:37.382Z,102236.97
2023-01-02T22:44:16.909Z,102233.34
2023-01-02T22:46:55.072Z,102233.31
2023-01-02T22:49:30.994Z,102228.09
2023-01-02T22:52:07.547Z,102230.81
2023-01-02T22:54:40.329Z,102240.13
2023-01-02T22:57:14.260Z,102238.28
2023-01-02T22:59:46.872Z,102248.78
2023-01-02T23:02:23.390Z,102242.75
2023-01-02T23:04:56.009Z,102258.81
2023-01-02T23:07:28.898Z,102251.56
2023-01-02T23:10:01.599Z,102252.19
2023-01-02T23:12:34.197Z,102245.31
2023-01-02T23:15:10.904Z,102244.25
2023-01-02T23:18:01.894Z,102250.31
2023-01-02T23:20:34.516Z,102252.06
2023-01-02T23:23:07.672Z,102256.47
2023-01-02T23:25:43.698Z,102254.72
2023-01-02T23:28:39.271Z,102268.75
2023-01-02T23:31:08.808Z,102274.88
2023-01-02T23:33:41.376Z,102274.94
2023-01-02T23:36:13.933Z,102273.84
2023-01-02T23:38:46.622Z,102277.53
2023-01-02T23:41:19.188Z,102287.88
2023-01-02T23:43:52.007Z,102291.34
2023-01-02T23:46:24.643Z,102297.41
2023-01-02T23:48:57.796Z,102291.97
2023-01-02T23:51:31.229Z,102302.81
2023-01-02T23:54:05.402Z,102303.31
2023-01-02T23:56:40.557Z,102305.31
2023-01-02T23:59:18.282Z,102300.31
